Warwick, Pennsylvania
Current Conditions -  °F | °C
As of 5:54 PM on Tuesday 27 Jan 2015 (Local Time) from KDYL Reporting Station
Clear Clear  
Wind Chill: 15°   Ceiling: Unl
Heat Index: 26°   Visibility: 10mi
Dew Point:   Wind: 13mph
Humidity: 49%   Direction: 310°NW
Pressure: 29.73"   Gusts: 20mph
Location:  40.2185°N, 75.0735°W
Report Text: KDYL 272254Z AUTO 31011G17KT 10SM CLR M03/M13 A2973 RMK AO2 SLP077 T10331128
Loading
Personal Weather Stations






























Interactive Weather Map New forecast layout! Learn more

10-Day Weather Forecast

Advertisements
Track Severe Weather on mobile